Latest METARs, TAFs and NOTAMs for EINN


---------------------------------------------------------------------------
	(OBSERVATIONS)
EINN 240230Z 24011KT 8000 -SHRA FEW008 BKN040 14/13 Q1013 NOSIG=
EINN 240200Z 24012KT 9999 FEW008 BKN060 14/12 Q1013 NOSIG=
EINN 240130Z 22009KT 8000 -SHRA FEW008 BKN050 14/13 Q1013 NOSIG=
EINN 240100Z 22007KT 8000 -SHRA FEW008 BKN050 14/12 Q1013 NOSIG=
EINN 240030Z 20009KT 9999 FEW008 BKN050 14/12 Q1013 NOSIG=
EINN 240000Z 19009KT 9999 FEW010 BKN040 14/12 Q1013 NOSIG=
---------------------------------------------------------------------------
	(FC)
Sorry, FC For EINN Not Found
---------------------------------------------------------------------------
	(TERMINAL AREA FORECAST)
EINN 232300Z 2400/2424 20008KT 9999 FEW010 BKN030
    PROB40 TEMPO 2400/2409 -SHRA BKN014
    BECMG 2408/2410 24013KT
    PROB40 TEMPO 2412/2424 5000 -RA BKN013
    TEMPO 2412/2416 23015G26KT
    BECMG 2421/2423 21008KT=
---------------------------------------------------------------------------
	(NOTAMS)


EINN A1383/17 ILS CATEGORY II RWY 24 OUT OF SERVICE. 22 JUL 17:34
    2017 UNTIL 22 SEP 05:00 2017. CREATED: 22 JUL 17:36 2017

EINN A1644/17 RWY 06/24 CLOSED REF AIP SUPPLEMENT 03/17 RWY 06/24
    REHABILITATION WORKS. 23 AUG 21:15 2017 UNTIL 24 AUG 05:00
    2017. CREATED: 23 AUG 20:30 2017

EINN A1645/17 TWY A CLOSED REF RWY 06/24 REHABILITATION WORKS.
    23 AUG 21:15 2017 UNTIL 24 AUG 05:00 2017. CREATED: 23 AUG
    20:32 2017

EINN A1646/17 RWY 06/24 CLOSED REF AIP SUPPLEMENT 03/17 RWY 06/24
    REHABILITATION WORKS. TUE 2100-0500, WED 2035-0500, THU 2215-0500,
    FRI 2255-0500, SAT 2150-0500, 24 AUG 22:15 2017 UNTIL 27
    SEP 05:00 2017. CREATED: 23 AUG 20:43 2017

EINN A1647/17 TWY A CLOSED REF AIP SUPPLEMENT 03/17 RWY 06/24
    REHABILITATION WORKS. TUE 2100-0500, WED 2035-0500, THU 2215-0500,
    FRI 2255-0500, SAT 2150-0500, 24 AUG 22:15 2017 UNTIL 27
    SEP 05:00 2017. CREATED: 23 AUG 20:44 2017

EINN A1651/17 RESCUE AND FIREFIGHTING SERVICES CHANGED TO CAT
    7. WED-SUN 0500-0600, 26 AUG 05:00 2017 UNTIL 27 SEP 06:00
    2017. CREATED: 23 AUG 21:53 2017

EINN B0496/17 TDZ LIGHTS RWY 24 OUT OF SERVICE. 22 JUL 17:36
    2017 UNTIL 22 SEP 05:00 2017. CREATED: 22 JUL 17:37 2017

EINN B0497/17 CENTRELINE LIGHTS RWY 24 OUT OF SERVICE. 22 JUL
    17:37 2017 UNTIL 22 SEP 05:00 2017. CREATED: 22 JUL 17:39
    2017

EINN B1142/15 HOLDING PROCEDURE CHANGED. RATE OF DESCENT IN HOLDING
    PATTERNS AMENDED TO: A STANDARD RATE OF DESCENT OF 1000FT
    PER MIN IN HOLDING PATTERNS WILL BE USED UNLESS OTHERWISE
    INSTRUCTED BY ATC. PILOTS MUST ADVISE ATC IF UNABLE TO COMPLY
    WITH THE STANDARD RATE OF DESCENT. REF AIP EINN AD 2.22 SECTION
    9. 02 OCT 18:07 2015 UNTIL PERM. CREATED: 01 MAY 11:24 2017

---------------------------------------------------------------------------